createdAt,value
2019-04-11T00:00:09.047Z,65.72
2019-04-11T00:01:08.047Z,74.03
2019-04-11T00:01:58.814Z,74.17
2019-04-11T00:02:49.815Z,75.50
2019-04-11T00:03:41.750Z,69.20
2019-04-11T00:04:32.310Z,56.13
2019-04-11T00:05:22.984Z,58.92
2019-04-11T00:06:12.709Z,61.95
2019-04-11T00:07:03.747Z,64.95
2019-04-11T00:07:54.307Z,70.57
2019-04-11T00:08:44.662Z,60.50
2019-04-11T00:09:35.215Z,67.22
2019-04-11T00:10:27.662Z,62.62
2019-04-11T00:11:17.984Z,62.05
2019-04-11T00:12:10.419Z,60.30
2019-04-11T00:13:01.247Z,58.78
2019-04-11T00:13:51.540Z,57.08
2019-04-11T00:14:42.166Z,55.28
2019-04-11T00:15:34.833Z,59.15
2019-04-11T00:16:25.453Z,66.82
2019-04-11T00:17:15.505Z,55.28
2019-04-11T00:18:06.168Z,64.42
2019-04-11T00:18:56.944Z,62.13
2019-04-11T00:19:47.484Z,59.70
2019-04-11T00:20:37.488Z,61.37
2019-04-11T00:21:28.765Z,56.33
2019-04-11T00:22:19.463Z,60.40
2019-04-11T00:23:08.760Z,63.17
2019-04-11T00:23:59.156Z,62.08
2019-04-11T00:24:51.269Z,57.60
2019-04-11T00:25:44.102Z,56.63
2019-04-11T00:26:33.839Z,57.33
2019-04-11T00:27:28.859Z,54.90
2019-04-11T00:28:25.799Z,65.47
2019-04-11T00:29:16.405Z,61.23
2019-04-11T00:30:08.092Z,65.60
2019-04-11T00:30:58.808Z,59.30
2019-04-11T00:31:49.577Z,62.78
2019-04-11T00:32:39.312Z,62.40
2019-04-11T00:33:30.023Z,59.70
2019-04-11T00:34:20.648Z,66.75
2019-04-11T00:35:11.230Z,65.97
2019-04-11T00:36:04.280Z,58.05
2019-04-11T00:36:58.879Z,68.52
2019-04-11T00:37:49.606Z,65.55
2019-04-11T00:38:40.316Z,62.85
2019-04-11T00:39:30.615Z,58.23
2019-04-11T00:40:21.551Z,57.50
2019-04-11T00:41:12.071Z,58.83
2019-04-11T00:42:04.109Z,64.97
2019-04-11T00:42:54.989Z,56.30
2019-04-11T00:43:46.907Z,70.97
2019-04-11T00:44:37.645Z,67.32
2019-04-11T00:45:28.744Z,67.37
2019-04-11T00:46:18.997Z,66.85
2019-04-11T00:47:11.004Z,58.10
2019-04-11T00:48:01.682Z,64.37
2019-04-11T00:48:52.894Z,65.57
2019-04-11T00:49:46.445Z,62.08
2019-04-11T00:50:37.257Z,56.02
2019-04-11T00:51:27.745Z,60.48
2019-04-11T00:52:18.155Z,63.73
2019-04-11T00:53:09.777Z,59.93
2019-04-11T00:54:00.599Z,58.98
2019-04-11T00:54:51.175Z,50.67
2019-04-11T00:55:41.876Z,55.20
2019-04-11T00:56:31.151Z,57.03
2019-04-11T00:57:23.057Z,54.42
2019-04-11T00:58:13.752Z,58.50
2019-04-11T00:59:03.430Z,58.68
2019-04-11T00:59:56.426Z,60.73
2019-04-11T01:00:47.146Z,63.05
2019-04-11T01:01:36.952Z,58.30
2019-04-11T01:02:27.824Z,56.40
2019-04-11T01:03:18.664Z,60.30
2019-04-11T01:04:09.653Z,54.45
2019-04-11T01:04:59.461Z,59.18
2019-04-11T01:05:50.016Z,53.52
2019-04-11T01:06:41.090Z,55.38
2019-04-11T01:07:33.167Z,59.50
2019-04-11T01:08:24.203Z,64.92
2019-04-11T01:09:16.136Z,55.65
2019-04-11T01:10:07.795Z,59.15
2019-04-11T01:11:00.477Z,56.53
2019-04-11T01:11:52.206Z,65.25
2019-04-11T01:12:44.679Z,57.33
2019-04-11T01:13:45.596Z,56.85
2019-04-11T01:14:25.830Z,61.08
2019-04-11T01:15:19.545Z,58.50
2019-04-11T01:16:18.626Z,63.17
2019-04-11T01:17:10.799Z,60.55
2019-04-11T01:18:01.478Z,58.25
2019-04-11T01:18:52.046Z,57.62
2019-04-11T01:19:42.982Z,61.70
2019-04-11T01:20:33.422Z,55.60
2019-04-11T01:21:24.277Z,56.90
2019-04-11T01:22:14.070Z,62.78
2019-04-11T01:23:06.841Z,56.95
2019-04-11T01:23:57.567Z,58.95
2019-04-11T01:24:48.163Z,59.98
2019-04-11T01:25:39.422Z,57.65
2019-04-11T01:26:30.036Z,55.40
2019-04-11T01:27:21.625Z,52.15
2019-04-11T01:28:12.211Z,54.18
2019-04-11T01:29:02.913Z,60.33
2019-04-11T01:29:54.424Z,57.25
2019-04-11T01:30:52.372Z,56.88
2019-04-11T01:31:44.221Z,54.95
2019-04-11T01:32:34.894Z,58.42
2019-04-11T01:33:25.392Z,57.85
2019-04-11T01:34:16.252Z,58.13
2019-04-11T01:35:06.894Z,57.65
2019-04-11T01:35:57.518Z,59.90
2019-04-11T01:36:47.583Z,54.23
2019-04-11T01:37:38.039Z,57.90
2019-04-11T01:38:28.814Z,56.00
2019-04-11T01:39:38.015Z,57.55
2019-04-11T01:40:29.892Z,51.70
2019-04-11T01:41:20.990Z,62.25
2019-04-11T01:42:11.264Z,60.65
2019-04-11T01:43:01.910Z,53.35
2019-04-11T01:43:56.273Z,54.77
2019-04-11T01:44:43.027Z,51.15
2019-04-11T01:45:33.705Z,54.60
2019-04-11T01:46:23.027Z,55.45
2019-04-11T01:47:16.559Z,56.05
2019-04-11T01:48:17.887Z,55.05
2019-04-11T01:49:16.389Z,56.73
2019-04-11T01:50:08.435Z,54.20
2019-04-11T01:50:59.093Z,56.75
2019-04-11T01:51:49.784Z,63.48
2019-04-11T01:52:39.872Z,56.37
2019-04-11T01:53:30.965Z,55.43
2019-04-11T01:54:21.668Z,58.50
2019-04-11T01:55:12.299Z,53.85
2019-04-11T01:56:03.097Z,53.73
2019-04-11T01:56:53.741Z,54.20
2019-04-11T01:57:44.870Z,58.78
2019-04-11T01:58:35.193Z,56.20
2019-04-11T01:59:25.240Z,53.00
2019-04-11T02:00:30.167Z,55.15
2019-04-11T02:01:41.064Z,53.02
2019-04-11T02:02:48.122Z,56.20
2019-04-11T02:03:57.372Z,45.83
2019-04-11T02:05:01.316Z,53.85
2019-04-11T02:05:52.141Z,49.08
2019-04-11T02:06:43.521Z,53.33
2019-04-11T02:07:34.351Z,57.38
2019-04-11T02:08:25.055Z,54.60
2019-04-11T02:09:15.919Z,54.63
2019-04-11T02:10:06.768Z,51.65
2019-04-11T02:10:57.472Z,54.10
2019-04-11T02:11:48.040Z,54.55
2019-04-11T02:12:39.388Z,55.92
2019-04-11T02:13:30.023Z,45.98
2019-04-11T02:14:21.060Z,50.35
2019-04-11T02:15:10.337Z,51.45
2019-04-11T02:16:01.467Z,53.83
2019-04-11T02:16:53.666Z,48.50
2019-04-11T02:17:43.747Z,53.83
2019-04-11T02:18:35.254Z,54.75
2019-04-11T02:19:25.917Z,53.73
2019-04-11T02:20:16.921Z,50.28
2019-04-11T02:21:07.554Z,50.60
2019-04-11T02:22:11.926Z,56.00
2019-04-11T02:23:23.288Z,55.92
2019-04-11T02:24:24.102Z,55.00
2019-04-11T02:25:34.100Z,50.52
2019-04-11T02:26:32.112Z,48.60
2019-04-11T02:27:27.419Z,48.00
2019-04-11T02:28:20.219Z,50.12
2019-04-11T02:29:09.571Z,47.83
2019-04-11T02:30:01.154Z,48.00
2019-04-11T02:30:54.172Z,48.17
2019-04-11T02:31:44.402Z,49.85
2019-04-11T02:32:34.438Z,54.73
2019-04-11T02:33:26.157Z,48.30
2019-04-11T02:34:16.020Z,60.85
2019-04-11T02:35:07.824Z,58.48
2019-04-11T02:35:58.109Z,55.90
2019-04-11T02:36:51.296Z,55.78
2019-04-11T02:37:42.050Z,49.85
2019-04-11T02:38:32.432Z,48.00
2019-04-11T02:39:22.930Z,44.60
2019-04-11T02:40:13.522Z,46.23
2019-04-11T02:41:03.518Z,49.90
2019-04-11T02:41:54.882Z,51.75
2019-04-11T02:42:45.651Z,52.00
2019-04-11T02:43:36.515Z,57.15
2019-04-11T02:44:42.411Z,56.92
2019-04-11T02:45:30.840Z,48.33
2019-04-11T02:46:17.606Z,48.30
2019-04-11T02:47:05.247Z,52.20
2019-04-11T02:47:50.637Z,50.12
2019-04-11T02:48:40.655Z,47.15
2019-04-11T02:49:31.166Z,49.83
2019-04-11T02:50:21.947Z,45.43
2019-04-11T02:51:12.474Z,50.63
2019-04-11T02:52:02.680Z,51.63
2019-04-11T02:52:52.978Z,53.75
2019-04-11T02:53:45.169Z,48.20
2019-04-11T02:54:34.289Z,47.05
2019-04-11T02:55:25.228Z,44.58
2019-04-11T02:56:14.918Z,49.63
2019-04-11T02:57:05.802Z,52.50
2019-04-11T02:57:57.640Z,52.03
2019-04-11T02:58:48.258Z,49.77
2019-04-11T02:59:38.949Z,50.43
2019-04-11T03:00:30.855Z,48.17
2019-04-11T03:01:20.039Z,53.80
2019-04-11T03:02:11.079Z,53.48
2019-04-11T03:03:01.565Z,46.95
2019-04-11T03:03:51.963Z,48.05
2019-04-11T03:04:42.424Z,53.20
2019-04-11T03:05:34.436Z,58.38
2019-04-11T03:06:23.499Z,58.78
2019-04-11T03:07:14.577Z,54.40
2019-04-11T03:08:09.228Z,51.80
2019-04-11T03:08:57.352Z,52.20
2019-04-11T03:09:48.824Z,46.95
2019-04-11T03:10:38.776Z,57.27
2019-04-11T03:11:30.363Z,61.45
2019-04-11T03:12:21.669Z,48.13
2019-04-11T03:13:12.672Z,50.12
2019-04-11T03:14:03.932Z,48.92
2019-04-11T03:15:10.837Z,53.50
2019-04-11T03:16:02.119Z,50.25
2019-04-11T03:16:46.209Z,51.80
2019-04-11T03:17:31.584Z,58.78
2019-04-11T03:18:35.567Z,55.80
2019-04-11T03:19:24.063Z,51.83
2019-04-11T03:20:13.066Z,55.67
2019-04-11T03:20:56.700Z,52.43
2019-04-11T03:21:43.880Z,49.70
2019-04-11T03:22:32.180Z,55.80
2019-04-11T03:23:23.538Z,57.55
2019-04-11T03:24:13.282Z,54.30
2019-04-11T03:25:06.010Z,50.23
2019-04-11T03:25:56.706Z,44.00
2019-04-11T03:26:46.367Z,52.83
2019-04-11T03:27:37.814Z,53.45
2019-04-11T03:28:31.285Z,48.68
2019-04-11T03:29:19.878Z,51.65
2019-04-11T03:30:15.016Z,48.35
2019-04-11T03:31:32.672Z,50.35
2019-04-11T03:32:34.622Z,51.68
2019-04-11T03:35:09.150Z,51.55
2019-04-11T03:36:08.730Z,52.35
2019-04-11T03:37:01.174Z,49.03
2019-04-11T03:38:05.873Z,45.88
2019-04-11T03:39:01.747Z,50.12
2019-04-11T03:39:52.698Z,46.58
2019-04-11T03:40:38.673Z,53.40
2019-04-11T03:41:23.544Z,52.88
2019-04-11T03:42:18.657Z,55.35
2019-04-11T03:43:04.226Z,55.12
2019-04-11T03:43:50.866Z,50.58
2019-04-11T03:44:38.364Z,46.10
2019-04-11T03:45:46.726Z,49.08
2019-04-11T03:46:30.835Z,46.33
2019-04-11T03:47:16.674Z,46.55
2019-04-11T03:48:10.963Z,47.38
2019-04-11T03:48:55.691Z,47.05
2019-04-11T03:49:44.741Z,46.30
2019-04-11T03:50:30.610Z,49.27
2019-04-11T03:51:18.732Z,55.88
2019-04-11T03:52:10.586Z,47.30
2019-04-11T03:53:01.411Z,47.73
2019-04-11T03:53:51.678Z,49.65
2019-04-11T03:54:49.449Z,48.90
2019-04-11T03:55:39.052Z,54.80
2019-04-11T03:56:30.427Z,48.42
2019-04-11T03:57:21.602Z,49.05
2019-04-11T03:58:13.108Z,44.30
2019-04-11T03:59:04.074Z,48.28
2019-04-11T03:59:54.520Z,45.80
2019-04-11T04:00:46.513Z,59.38
2019-04-11T04:01:37.982Z,48.23
2019-04-11T04:02:26.628Z,46.05
2019-04-11T04:03:18.235Z,54.88
2019-04-11T04:04:08.942Z,48.20
2019-04-11T04:04:59.220Z,49.30
2019-04-11T04:05:48.807Z,49.18
2019-04-11T04:06:39.499Z,47.05
2019-04-11T04:07:32.005Z,48.17
2019-04-11T04:08:22.444Z,52.08
2019-04-11T04:09:13.072Z,54.38
2019-04-11T04:10:03.558Z,53.90
2019-04-11T04:11:06.074Z,50.90
2019-04-11T04:11:56.858Z,53.42
2019-04-11T04:12:47.521Z,50.25
2019-04-11T04:13:38.984Z,52.48
2019-04-11T04:14:34.382Z,49.88
2019-04-11T04:15:53.806Z,52.13
2019-04-11T04:16:46.973Z,48.80
2019-04-11T04:18:00.106Z,50.48
2019-04-11T04:19:01.564Z,50.58
2019-04-11T04:20:10.930Z,46.85
2019-04-11T04:21:22.665Z,46.08
2019-04-11T04:22:22.153Z,46.35
2019-04-11T04:23:19.100Z,48.55
2019-04-11T04:24:34.210Z,46.45
2019-04-11T04:25:21.373Z,50.95
2019-04-11T04:26:12.329Z,45.78
2019-04-11T04:27:04.279Z,45.48
2019-04-11T04:27:56.899Z,44.35
2019-04-11T04:28:47.659Z,45.88
2019-04-11T04:29:41.135Z,49.30
2019-04-11T04:30:30.002Z,48.40
2019-04-11T04:31:22.245Z,54.88
2019-04-11T04:32:12.068Z,45.15
2019-04-11T04:33:02.915Z,59.33
2019-04-11T04:33:53.404Z,58.23
2019-04-11T04:34:44.315Z,53.75
2019-04-11T04:35:36.357Z,47.88
2019-04-11T04:36:27.285Z,52.20
2019-04-11T04:37:16.249Z,52.40
2019-04-11T04:38:07.540Z,52.83
2019-04-11T04:38:59.281Z,46.40
2019-04-11T04:39:51.826Z,51.18
2019-04-11T04:40:57.047Z,47.85
2019-04-11T04:41:39.201Z,50.73
2019-04-11T04:42:31.506Z,46.77
2019-04-11T04:43:14.640Z,58.45
2019-04-11T04:44:06.464Z,52.53
2019-04-11T04:44:58.285Z,51.45
2019-04-11T04:46:04.937Z,52.88
2019-04-11T04:46:54.789Z,51.20
2019-04-11T04:47:39.752Z,47.50
2019-04-11T04:48:24.319Z,49.42
2019-04-11T04:49:13.678Z,46.53
2019-04-11T04:50:06.165Z,53.63
2019-04-11T04:50:57.628Z,51.00
2019-04-11T04:51:47.792Z,48.40
2019-04-11T04:52:38.180Z,54.35
2019-04-11T04:53:28.630Z,46.08
2019-04-11T04:54:22.031Z,52.58
2019-04-11T04:55:12.435Z,51.98
2019-04-11T04:56:02.657Z,52.70
2019-04-11T04:56:54.497Z,47.88
2019-04-11T04:57:44.951Z,55.17
2019-04-11T04:58:35.358Z,48.80
2019-04-11T04:59:25.385Z,53.58
2019-04-11T05:00:18.668Z,51.50
2019-04-11T05:01:07.154Z,55.05
2019-04-11T05:01:57.234Z,54.63
2019-04-11T05:02:48.011Z,53.65
2019-04-11T05:03:40.422Z,59.15
2019-04-11T05:04:29.831Z,46.08
2019-04-11T05:05:21.984Z,53.65
2019-04-11T05:06:12.018Z,46.80
2019-04-11T05:07:03.268Z,54.00
2019-04-11T05:07:54.221Z,46.18
2019-04-11T05:08:47.163Z,52.53
2019-04-11T05:09:38.538Z,54.35
2019-04-11T05:10:30.608Z,43.87
2019-04-11T05:11:23.151Z,44.85
2019-04-11T05:12:11.983Z,54.67
2019-04-11T05:13:03.548Z,56.02
2019-04-11T05:13:54.485Z,49.18
2019-04-11T05:14:47.762Z,46.02
2019-04-11T05:15:36.895Z,49.98
2019-04-11T05:16:27.830Z,49.85
2019-04-11T05:17:19.221Z,55.90
2019-04-11T05:18:10.897Z,56.73
2019-04-11T05:18:59.485Z,59.65
2019-04-11T05:19:54.410Z,48.55
2019-04-11T05:20:46.343Z,54.25
2019-04-11T05:21:38.891Z,50.12
2019-04-11T05:22:29.352Z,52.83
2019-04-11T05:23:21.444Z,47.20
2019-04-11T05:24:12.572Z,59.90
2019-04-11T05:25:03.847Z,58.05
2019-04-11T05:25:53.703Z,54.03
2019-04-11T05:26:44.487Z,45.83
2019-04-11T05:27:35.825Z,58.70
2019-04-11T05:28:27.614Z,63.73
2019-04-11T05:29:17.423Z,54.00
2019-04-11T05:30:08.387Z,54.80
2019-04-11T05:30:58.874Z,48.40
2019-04-11T05:31:51.161Z,52.33
2019-04-11T05:32:41.654Z,57.48
2019-04-11T05:33:32.692Z,52.80
2019-04-11T05:34:23.844Z,46.65
2019-04-11T05:35:14.641Z,55.95
2019-04-11T05:36:06.018Z,50.78
2019-04-11T05:36:57.626Z,51.40
2019-04-11T05:37:48.891Z,60.40
2019-04-11T05:38:40.083Z,61.28
2019-04-11T05:39:31.720Z,53.95
2019-04-11T05:40:22.291Z,49.85
2019-04-11T05:41:13.900Z,50.88
2019-04-11T05:42:05.103Z,47.33
2019-04-11T05:42:55.707Z,46.70
2019-04-11T05:43:47.329Z,54.83
2019-04-11T05:44:38.296Z,57.13
2019-04-11T05:45:28.237Z,50.48
2019-04-11T05:46:31.114Z,57.17
2019-04-11T05:47:14.538Z,49.88
2019-04-11T05:48:01.510Z,49.33
2019-04-11T05:49:07.184Z,55.25
2019-04-11T05:50:12.916Z,51.55
2019-04-11T05:51:00.430Z,50.43
2019-04-11T05:52:04.069Z,52.15
2019-04-11T05:52:54.815Z,46.98
2019-04-11T05:53:48.587Z,51.65
2019-04-11T05:54:43.136Z,50.85
2019-04-11T05:55:41.525Z,46.40
2019-04-11T05:56:29.969Z,54.27
2019-04-11T05:57:23.790Z,52.85
2019-04-11T05:58:14.294Z,54.60
2019-04-11T05:59:17.208Z,50.25
2019-04-11T06:00:09.707Z,52.35
2019-04-11T06:01:05.407Z,54.40
2019-04-11T06:02:04.367Z,48.13
2019-04-11T06:02:57.530Z,52.55
2019-04-11T06:03:49.278Z,55.28
2019-04-11T06:04:42.841Z,53.55
2019-04-11T06:05:40.852Z,57.83
2019-04-11T06:06:40.171Z,49.00
2019-04-11T06:07:40.055Z,52.13
2019-04-11T06:08:30.270Z,49.85
2019-04-11T06:09:23.039Z,53.15
2019-04-11T06:10:19.848Z,49.60
2019-04-11T06:11:16.502Z,44.95
2019-04-11T06:12:21.684Z,46.90
2019-04-11T06:13:18.319Z,50.98
2019-04-11T06:14:39.752Z,44.77
2019-04-11T06:15:36.292Z,53.00
2019-04-11T06:16:36.124Z,50.83
2019-04-11T06:17:18.501Z,54.93
2019-04-11T06:18:27.000Z,52.48
2019-04-11T06:19:22.914Z,44.10
2019-04-11T06:20:45.212Z,42.33
2019-04-11T06:21:38.059Z,47.35
2019-04-11T06:22:29.675Z,53.38
2019-04-11T06:23:54.260Z,44.70
2019-04-11T06:25:11.242Z,48.10
2019-04-11T06:26:11.738Z,41.40
2019-04-11T06:27:14.238Z,50.90
2019-04-11T06:28:11.800Z,45.85
2019-04-11T06:29:17.163Z,51.05
2019-04-11T06:30:18.244Z,51.75
2019-04-11T06:31:31.898Z,45.50
2019-04-11T06:32:41.248Z,50.75
2019-04-11T06:33:37.901Z,43.87
2019-04-11T06:34:30.500Z,46.30
2019-04-11T06:35:37.837Z,52.08
2019-04-11T06:36:48.260Z,49.42
2019-04-11T06:37:59.619Z,50.30
2019-04-11T06:38:58.696Z,44.45
2019-04-11T06:39:59.756Z,51.73
2019-04-11T06:40:56.363Z,47.10
2019-04-11T06:42:13.063Z,52.15
2019-04-11T06:43:21.878Z,52.15
2019-04-11T06:44:35.356Z,44.58
2019-04-11T06:45:54.442Z,45.05
2019-04-11T06:47:08.221Z,50.38
2019-04-11T06:48:17.806Z,41.28
2019-04-11T06:49:26.932Z,45.17
2019-04-11T06:50:46.972Z,41.75
2019-04-11T06:51:42.842Z,44.93
2019-04-11T06:52:34.953Z,44.05
2019-04-11T06:53:32.170Z,43.60
2019-04-11T06:54:33.221Z,44.18
2019-04-11T06:55:42.677Z,41.35
2019-04-11T06:56:39.299Z,39.55
2019-04-11T06:57:32.017Z,40.88
2019-04-11T06:58:29.752Z,48.60
2019-04-11T06:59:36.698Z,40.98
2019-04-11T07:00:29.246Z,45.83
2019-04-11T07:01:25.763Z,38.95
2019-04-11T07:02:19.632Z,46.37
2019-04-11T07:03:17.942Z,46.85
2019-04-11T07:04:17.872Z,42.73
2019-04-11T07:05:09.052Z,39.65
2019-04-11T07:06:01.439Z,42.78
2019-04-11T07:06:54.050Z,47.88
2019-04-11T07:07:49.472Z,42.13
2019-04-11T07:08:49.049Z,43.95
2019-04-11T07:10:02.088Z,44.38
2019-04-11T07:10:56.494Z,48.42
2019-04-11T07:11:50.796Z,44.75
2019-04-11T07:12:57.276Z,40.15
2019-04-11T07:13:58.642Z,42.10
2019-04-11T07:15:07.523Z,47.13
2019-04-11T07:15:58.302Z,45.15
2019-04-11T07:17:09.550Z,44.42
2019-04-11T07:18:16.794Z,42.20
2019-04-11T07:19:39.423Z,48.13
2019-04-11T07:21:02.900Z,45.35
2019-04-11T07:21:53.205Z,43.75
2019-04-11T07:23:02.186Z,38.70
2019-04-11T07:24:11.761Z,43.45
2019-04-11T07:25:20.266Z,45.23
2019-04-11T07:26:37.332Z,48.63
2019-04-11T07:27:28.154Z,46.75
2019-04-11T07:28:37.454Z,46.83
2019-04-11T07:30:00.303Z,48.13
2019-04-11T07:31:10.545Z,44.90
2019-04-11T07:32:06.958Z,40.17
2019-04-11T07:33:08.002Z,43.25
2019-04-11T07:34:17.535Z,45.38
2019-04-11T07:35:27.701Z,44.48
2019-04-11T07:36:36.087Z,43.23
2019-04-11T07:37:38.501Z,46.65
2019-04-11T07:38:36.510Z,41.42
2019-04-11T07:39:44.975Z,41.73
2019-04-11T07:40:54.527Z,43.05
2019-04-11T07:42:02.289Z,44.27
2019-04-11T07:43:19.699Z,42.13
2019-04-11T07:44:10.953Z,42.83
2019-04-11T07:45:04.211Z,48.73
2019-04-11T07:46:24.613Z,39.48
2019-04-11T07:47:26.330Z,48.38
2019-04-11T07:48:17.444Z,44.35
2019-04-11T07:49:08.648Z,42.65
2019-04-11T07:50:00.665Z,47.10
2019-04-11T07:50:54.145Z,42.70
2019-04-11T07:51:46.903Z,44.13
2019-04-11T07:52:46.935Z,41.73
2019-04-11T07:53:40.009Z,41.88
2019-04-11T07:54:30.731Z,48.38
2019-04-11T07:55:23.666Z,45.58
2019-04-11T07:56:30.106Z,42.53
2019-04-11T07:57:28.999Z,46.05
2019-04-11T07:58:25.118Z,46.00
2019-04-11T07:59:33.885Z,47.38
2019-04-11T08:00:44.190Z,46.55
2019-04-11T08:01:54.976Z,41.48
2019-04-11T08:03:04.214Z,39.10
2019-04-11T08:04:15.590Z,45.85
2019-04-11T08:05:24.955Z,41.10
2019-04-11T08:06:28.861Z,51.85
2019-04-11T08:07:49.037Z,47.05
2019-04-11T08:08:56.235Z,42.27
2019-04-11T08:09:57.161Z,45.17
2019-04-11T08:10:55.683Z,46.33
2019-04-11T08:11:52.618Z,46.00
2019-04-11T08:12:45.578Z,44.38
2019-04-11T08:13:45.633Z,47.60
2019-04-11T08:14:59.325Z,34.58
2019-04-11T08:16:08.442Z,44.45
2019-04-11T08:17:25.952Z,42.88
2019-04-11T08:18:14.688Z,47.83
2019-04-11T08:19:26.913Z,47.10
2019-04-11T08:20:35.992Z,44.63
2019-04-11T08:21:46.093Z,53.00
2019-04-11T08:22:43.252Z,43.10
2019-04-11T08:23:33.874Z,46.18
2019-04-11T08:24:30.293Z,43.73
2019-04-11T08:25:39.864Z,40.15
2019-04-11T08:26:48.647Z,41.08
2019-04-11T08:27:54.706Z,44.08
2019-04-11T08:28:37.251Z,44.18
2019-04-11T08:29:27.177Z,47.08
2019-04-11T08:30:19.064Z,46.73
2019-04-11T08:31:28.769Z,47.50
2019-04-11T08:32:40.074Z,49.63
2019-04-11T08:33:31.473Z,44.95
2019-04-11T08:34:21.926Z,45.52
2019-04-11T08:35:52.939Z,42.03
2019-04-11T08:37:00.495Z,41.98
2019-04-11T08:38:02.826Z,44.27
2019-04-11T08:38:53.036Z,37.50
2019-04-11T08:39:47.142Z,45.03
2019-04-11T08:40:47.083Z,46.45
2019-04-11T08:42:05.198Z,43.33
2019-04-11T08:43:07.157Z,61.90
2019-04-11T08:43:58.103Z,41.20
2019-04-11T08:44:48.742Z,45.75
2019-04-11T08:45:42.873Z,41.20
2019-04-11T08:46:37.286Z,40.75
2019-04-11T08:47:42.875Z,43.40
2019-04-11T08:48:23.240Z,44.40
2019-04-11T08:49:34.868Z,43.52
2019-04-11T08:50:28.382Z,44.23
2019-04-11T08:51:19.167Z,42.48
2019-04-11T08:52:16.003Z,45.25
2019-04-11T08:53:25.065Z,42.88
2019-04-11T08:54:35.520Z,45.67
2019-04-11T08:55:44.648Z,46.00
2019-04-11T08:56:23.107Z,43.33
2019-04-11T08:57:13.841Z,43.87
2019-04-11T08:58:12.554Z,41.28
2019-04-11T08:59:44.067Z,44.18
2019-04-11T09:00:58.508Z,45.70
2019-04-11T09:01:47.224Z,42.58
2019-04-11T09:02:44.975Z,43.13
2019-04-11T09:03:57.375Z,38.95
2019-04-11T09:05:15.746Z,39.92
2019-04-11T09:06:09.984Z,42.80
2019-04-11T09:07:01.142Z,41.08
2019-04-11T09:08:11.363Z,45.52
2019-04-11T09:09:20.908Z,46.35
2019-04-11T09:10:29.175Z,44.80
2019-04-11T09:11:26.547Z,44.23
2019-04-11T09:12:18.441Z,41.15
2019-04-11T09:13:21.316Z,42.27
2019-04-11T09:14:32.492Z,42.73
2019-04-11T09:15:41.901Z,43.80
2019-04-11T09:17:04.489Z,43.02
2019-04-11T09:18:05.733Z,45.28
2019-04-11T09:18:52.374Z,44.55
2019-04-11T09:20:07.475Z,49.00
2019-04-11T09:21:16.046Z,42.13
2019-04-11T09:22:26.302Z,41.35
2019-04-11T09:23:21.693Z,49.42
2019-04-11T09:24:26.269Z,41.83
2019-04-11T09:25:35.005Z,39.55
2019-04-11T09:26:44.389Z,42.13
2019-04-11T09:27:49.162Z,50.17
2019-04-11T09:28:43.923Z,48.05
2019-04-11T09:29:35.681Z,41.00
2019-04-11T09:30:45.231Z,41.50
2019-04-11T09:31:55.938Z,48.85
2019-04-11T09:33:06.714Z,47.70
2019-04-11T09:34:14.610Z,43.68
2019-04-11T09:35:12.463Z,47.85
2019-04-11T09:36:22.474Z,44.10
2019-04-11T09:37:29.420Z,46.98
2019-04-11T09:38:19.752Z,43.45
2019-04-11T09:39:32.439Z,39.85
2019-04-11T09:40:41.884Z,46.70
2019-04-11T09:42:09.981Z,45.52
2019-04-11T09:43:31.893Z,42.48
2019-04-11T09:44:23.058Z,46.73
2019-04-11T09:45:25.740Z,45.17
2019-04-11T09:46:34.502Z,54.95
2019-04-11T09:47:47.685Z,45.20
2019-04-11T09:48:58.031Z,45.40
2019-04-11T09:49:55.834Z,45.38
2019-04-11T09:51:07.854Z,45.20
2019-04-11T09:52:04.347Z,41.33
2019-04-11T09:52:54.561Z,43.70
2019-04-11T09:53:50.817Z,46.15
2019-04-11T09:54:50.515Z,40.52
2019-04-11T09:55:59.101Z,51.28
2019-04-11T09:57:18.548Z,48.87
2019-04-11T09:58:23.188Z,36.75
2019-04-11T09:59:20.724Z,45.20
2019-04-11T10:00:20.574Z,42.33
2019-04-11T10:01:28.830Z,44.00
2019-04-11T10:02:48.423Z,46.15
2019-04-11T10:03:42.946Z,42.93
2019-04-11T10:04:32.002Z,43.87
2019-04-11T10:05:26.549Z,44.35
2019-04-11T10:06:38.819Z,46.60
2019-04-11T10:07:46.275Z,50.43
2019-04-11T10:08:43.666Z,47.15
2019-04-11T10:09:52.439Z,64.42
2019-04-11T10:11:01.676Z,54.63
2019-04-11T10:12:09.598Z,46.48
2019-04-11T10:13:18.735Z,45.63
2019-04-11T10:14:15.539Z,56.85
2019-04-11T10:15:07.173Z,46.98
2019-04-11T10:16:31.998Z,49.25
2019-04-11T10:17:46.404Z,51.13
2019-04-11T10:19:01.862Z,48.48
2019-04-11T10:19:57.057Z,47.48
2019-04-11T10:20:50.860Z,45.73
2019-04-11T10:21:43.749Z,47.48
2019-04-11T10:22:52.373Z,48.70
2019-04-11T10:24:20.641Z,50.60
2019-04-11T10:25:28.880Z,50.20
2019-04-11T10:26:20.310Z,50.00
2019-04-11T10:27:40.644Z,51.15
2019-04-11T10:28:49.503Z,49.88
2019-04-11T10:29:58.867Z,44.83
2019-04-11T10:31:22.593Z,49.77
2019-04-11T10:32:14.922Z,52.88
2019-04-11T10:33:10.823Z,43.02
2019-04-11T10:34:33.528Z,46.58
2019-04-11T10:35:41.037Z,47.13
2019-04-11T10:36:49.726Z,48.00
2019-04-11T10:37:42.202Z,48.02
2019-04-11T10:38:32.898Z,46.05
2019-04-11T10:39:43.698Z,45.50
2019-04-11T10:40:54.947Z,51.50
2019-04-11T10:41:52.383Z,47.00
2019-04-11T10:42:47.561Z,47.95
2019-04-11T10:43:40.358Z,46.58
2019-04-11T10:45:00.305Z,46.80
2019-04-11T10:46:01.397Z,39.98
2019-04-11T10:47:09.974Z,47.78
2019-04-11T10:48:03.199Z,44.50
2019-04-11T10:49:03.416Z,45.85
2019-04-11T10:50:17.515Z,46.02
2019-04-11T10:51:15.230Z,49.23
2019-04-11T10:52:24.531Z,47.98
2019-04-11T10:53:16.290Z,45.33
2019-04-11T10:54:07.380Z,47.83
2019-04-11T10:55:19.757Z,45.55
2019-04-11T10:56:35.674Z,47.85
2019-04-11T10:57:44.686Z,51.33
2019-04-11T10:58:40.693Z,52.30
2019-04-11T10:59:34.367Z,46.23
2019-04-11T11:00:35.586Z,50.08
2019-04-11T11:02:02.846Z,50.45
2019-04-11T11:03:22.409Z,46.92
2019-04-11T11:04:32.523Z,44.73
2019-04-11T11:05:24.315Z,46.53
2019-04-11T11:06:17.710Z,48.55
2019-04-11T11:07:14.794Z,48.50
2019-04-11T11:08:25.860Z,47.35
2019-04-11T11:09:39.365Z,48.15
2019-04-11T11:10:33.396Z,49.60
2019-04-11T11:11:28.383Z,49.38
2019-04-11T11:12:37.144Z,51.55
2019-04-11T11:14:00.429Z,52.23
2019-04-11T11:15:11.489Z,44.08
2019-04-11T11:16:02.772Z,49.15
2019-04-11T11:17:04.527Z,47.10
2019-04-11T11:18:38.135Z,46.75
2019-04-11T11:19:48.731Z,44.88
2019-04-11T11:20:43.016Z,45.63
2019-04-11T11:21:33.823Z,51.45
2019-04-11T11:22:34.469Z,44.30
2019-04-11T11:23:41.080Z,45.55
2019-04-11T11:25:00.160Z,48.35
2019-04-11T11:26:23.310Z,48.23
2019-04-11T11:27:13.802Z,49.90
2019-04-11T11:28:05.261Z,43.90
2019-04-11T11:29:15.174Z,44.65
2019-04-11T11:30:23.090Z,46.92
2019-04-11T11:31:22.354Z,47.17
2019-04-11T11:32:35.879Z,43.52
2019-04-11T11:33:28.393Z,47.62
2019-04-11T11:34:26.196Z,54.40
2019-04-11T11:35:37.072Z,43.98
2019-04-11T11:36:47.897Z,41.02
2019-04-11T11:37:47.188Z,47.35
2019-04-11T11:38:37.737Z,47.43
2019-04-11T11:39:35.243Z,47.40
2019-04-11T11:40:44.817Z,43.40
2019-04-11T11:41:54.529Z,47.98
2019-04-11T11:43:03.144Z,48.38
2019-04-11T11:43:53.360Z,45.35
2019-04-11T11:44:55.696Z,43.38
2019-04-11T11:45:56.740Z,46.83
2019-04-11T11:47:05.228Z,44.40
2019-04-11T11:48:13.626Z,43.95
2019-04-11T11:49:29.611Z,41.25
2019-04-11T11:50:10.520Z,47.83
2019-04-11T11:51:03.388Z,43.00
2019-04-11T11:52:13.143Z,46.13
2019-04-11T11:53:35.990Z,43.20
2019-04-11T11:54:48.946Z,46.20
2019-04-11T11:55:39.557Z,41.15
2019-04-11T11:56:31.553Z,45.80
2019-04-11T11:57:35.087Z,41.68
2019-04-11T11:58:45.249Z,43.23
2019-04-11T11:59:45.819Z,41.37
2019-04-11T12:00:37.258Z,47.08
2019-04-11T12:01:29.551Z,45.48
2019-04-11T12:02:26.977Z,40.60
2019-04-11T12:03:37.135Z,47.75
2019-04-11T12:04:46.473Z,41.20
2019-04-11T12:05:50.851Z,42.13
2019-04-11T12:06:40.914Z,42.95
2019-04-11T12:07:43.068Z,46.75
2019-04-11T12:08:49.761Z,47.08
2019-04-11T12:10:13.732Z,41.55
2019-04-11T12:11:08.107Z,45.67
2019-04-11T12:12:02.907Z,44.50
2019-04-11T12:13:08.539Z,44.30
2019-04-11T12:14:22.364Z,42.70
2019-04-11T12:15:30.220Z,43.60
2019-04-11T12:16:25.832Z,43.25
2019-04-11T12:17:40.589Z,46.35
2019-04-11T12:19:04.620Z,42.03
2019-04-11T12:20:06.407Z,42.67
2019-04-11T12:20:59.040Z,43.80